Station: Busselton Airport  

  Atmospheric Gas Attenuation - ITU Rec 676-11   ----------------- dB/100km -----------------
Date Time Temp RH % AH g/m3 Dew Point Wind Direction Speed kph Gust kph Barometer mB Rainfall Since 9am 24GHz 47GHz 76GHz 122GHz 134GHz 241GHz
04/05 16:50 17.8 67 10.17 11.6 13 13 1026.5 0 22.7 27.7 44.6 117.2 114.9 396.6
04/05 16:40 17.7 68 10.26 11.7 11 13 1026.5 0 22.9 27.9 45.0 118.3 116.2 401.3
04/05 16:30 17.7 66 9.96 11.3 13 17 1026.5 0 22.3 27.4 43.8 115.0 112.2 387.3
04/05 16:20 18.5 65 10.28 11.8 13 13 1026.5 0 22.9 27.7 44.7 117.3 115.3 398.2
04/05 16:10 18.7 65 10.41 12 15 17 1026.6 0 23.2 27.9 45.1 118.4 116.7 403.2
04/05 16:00 19.5 62 10.4 12 9 13 1026.5 0 23.1 27.6 44.6 117.1 115.4 398.6
04/05 15:50 19.5 64 10.74 12.5 7 9 1026.5 0 23.8 28.1 45.9 120.8 119.9 414.3
04/05 15:40 18.3 65 10.16 11.6 9 11 1026.5 0 22.7 27.6 44.3 116.3 114.0 393.6
04/05 15:30 18.6 67 10.66 12.4 11 15 1026.4 0 23.7 28.3 46.1 121.3 120.2 415.3
04/05 15:20 19 66 10.75 12.5 11 13 1026.4 0 23.9 28.3 46.3 121.6 120.8 417.4
04/05 15:10 19.1 62 10.16 11.7 11 13 1026.4 0 22.6 27.3 43.8 115.1 112.8 389.6
04/05 15:00 19.8 61 10.42 12.1 11 15 1026.4 0 23.1 27.5 44.5 116.9 115.2 398.0
04/05 14:50 19.8 62 10.59 12.3 7 9 1026.4 0 23.5 27.8 45.2 118.7 117.5 405.8
04/05 14:40 19.1 66 10.82 12.6 11 13 1026.4 0 24.0 28.4 46.5 122.2 121.6 420.1
04/05 14:30 19.6 63 10.63 12.4 11 17 1026.5 0 23.6 27.9 45.4 119.4 118.3 408.7
04/05 14:20 19.4 62 10.34 11.9 9 13 1026.5 0 23.0 27.5 44.4 116.6 114.8 396.4
04/05 14:10 20.1 60 10.43 12.1 9 13 1026.5 0 23.1 27.5 44.4 116.5 114.9 397.0
04/05 14:00 20 57 9.85 11.2 4 15 1026.5 0 21.9 26.6 42.1 110.6 107.6 371.3
04/05 13:50 19.2 55 9.07 9.9 7 9 1026.6 0 20.3 25.6 39.5 103.7 98.7 340.2
04/05 13:40 18.4 59 9.28 10.3 4 6 1026.8 0 20.8 26.1 40.8 106.9 102.4 353.1
04/05 13:30 19.3 55 9.12 10 4 7 1027 0 20.4 25.6 39.7 104.1 99.3 342.1
04/05 13:20 18.6 60 9.55 10.7 6 6 1027.1 0 21.3 26.5 41.7 109.5 105.7 364.5
04/05 13:10 18.5 57 9.02 9.8 6 6 1027.2 0 20.2 25.7 39.7 104.1 99.0 341.2
04/05 13:00 18.9 59 9.56 10.7 4 9 1027.2 0 21.4 26.5 41.6 109.2 105.4 363.6
04/05 12:50 18.7 61 9.77 11 7 9 1027.5 0 21.8 26.9 42.6 111.7 108.4 374.1
04/05 12:40 19.3 62 10.28 11.8 0 2 1027.6 0 22.9 27.5 44.3 116.3 114.2 394.5
04/05 12:30 19.2 62 10.22 11.7 2 7 1027.7 0 22.7 27.4 44.1 115.8 113.6 392.3
04/05 12:20 18.4 65 10.22 11.7 6 7 1028 0 22.8 27.7 44.5 117.0 114.8 396.3
04/05 12:10 18.2 67 10.41 12 11 11 1028.1 0 23.2 28.1 45.4 119.3 117.6 406.2
04/05 12:00 17.8 70 10.62 12.3 7 13 1028.2 0 23.7 28.6 46.5 122.3 121.1 418.3
04/05 11:50 18.1 70 10.81 12.5 9 11 1028.4 0 24.0 28.8 47.1 123.9 123.2 425.7
04/05 11:40 17.8 68 10.32 11.8 9 11 1028.5 0 23.0 28.1 45.3 119.0 117.1 404.2
04/05 11:30 17.9 71 10.84 12.6 7 13 1028.6 0 24.1 28.9 47.4 124.6 124.0 428.3
04/05 11:20 17.5 75 11.18 13 4 11 1028.7 0 24.9 29.6 49.1 129.0 129.3 446.9
04/05 11:10 16.8 73 10.44 11.9 9 9 1028.9 0 23.3 28.6 46.4 121.9 120.3 415.2
04/05 11:00 16.6 75 10.59 12.2 9 15 1028.9 0 23.7 28.9 47.2 123.9 122.6 423.5
04/05 10:50 16.3 81 11.24 13 4 6 1029.1 0 25.1 30.1 50.1 131.8 132.2 456.9
04/05 10:40 15.8 82 11.04 12.7 11 13 1029.1 0 24.7 30.0 49.6 130.3 130.3 450.0
04/05 10:30 15.5 84 11.1 12.8 7 11 1029 0 24.8 30.2 50.0 131.5 131.6 454.7
04/05 10:20 15.2 88 11.42 13.2 9 11 1029.2 0 25.5 30.8 51.6 135.8 136.7 472.6
04/05 10:10 14.6 91 11.39 13.1 6 7 1029.3 0 25.5 31.0 51.9 136.5 137.4 474.8
04/05 10:00 14.3 97 11.92 13.8 7 13 1029.2 0 26.6 32.1 54.5 143.4 145.7 503.8
04/05 09:50 13.9 99 11.87 13.7 9 13 1029.2 0 26.6 32.1 54.5 143.5 145.8 503.9
04/05 09:40 13.4 99 11.51 13.2 6 7 1029.2 0 25.8 31.7 53.2 140.1 141.4 488.4
04/05 09:30 13.1 99 11.3 12.9 7 13 1029.1 0 25.4 31.4 52.5 138.1 138.8 479.4
04/05 09:20 13.2 100 11.48 13.2 11 13 1029.2 0 25.8 31.7 53.2 140.1 141.3 488.1
04/05 09:10 12.9 100 11.27 12.9 9 11 1029.2 0 25.3 31.4 52.5 138.1 138.7 479.2
04/05 09:00 12.5 100 11 12.5 11 15 1029.2 0 24.8 31.1 51.5 135.5 135.5 467.7
04/05 08:50 12.1 100 10.73 12.1 13 15 1029.3 0 24.2 30.7 50.6 133.0 132.2 456.2
04/05 08:40 12.3 100 10.86 12.3 9 11 1029.3 0 24.5 30.9 51.1 134.2 133.7 461.7
04/05 08:30 12.1 100 10.73 12.1 13 17 1029.2 0 24.2 30.7 50.6 133.0 132.2 456.2
04/05 08:20 11.9 100 10.59 11.9 15 17 1029.2 0 23.9 30.5 50.1 131.7 130.5 450.1
04/05 08:10 12 100 10.66 12 11 13 1029.2 0 24.1 30.6 50.3 132.3 131.3 453.1
04/05 08:00 11.8 100 10.53 11.8 11 15 1029 0 23.8 30.4 49.9 131.1 129.7 447.6
04/05 07:50 11.7 100 10.46 11.7 13 15 1029 0 23.7 30.4 49.6 130.4 128.9 444.6
04/05 07:40 11.6 100 10.4 11.6 11 13 1028.9 0 23.5 30.3 49.4 129.9 128.1 442.0
04/05 07:30 11.5 100 10.33 11.5 7 13 1028.7 0 23.4 30.2 49.2 129.2 127.3 439.0
04/05 07:20 11.3 100 10.2 11.3 7 9 1028.7 0 23.1 30.0 48.7 128.0 125.7 433.4
04/05 07:10 11 100 10.01 11 7 9 1028.6 0 22.7 29.8 48.1 126.2 123.4 425.4
04/05 07:00 10.6 100 9.76 10.6 4 7 1028.5 0 22.2 29.5 47.2 123.9 120.4 414.8
04/05 06:50 10.4 100 9.64 10.4 6 7 1028.5 0 22.0 29.3 46.8 122.8 119.0 409.8
04/05 06:40 10 100 9.4 10 6 7 1028.4 0 21.5 29.0 45.9 120.6 116.1 399.7
04/05 06:30 9.7 100 9.22 9.7 6 11 1028.2 0 21.1 28.8 45.3 118.9 113.9 392.1
04/05 06:20 9.2 100 8.93 9.2 7 9 1028.3 0 20.5 28.5 44.3 116.3 110.5 380.0
04/05 06:10 8.2 100 8.38 8.2 9 9 1028.2 0 19.4 27.8 42.5 111.3 104.0 357.1
04/05 06:00 7.1 100 7.8 7.1 9 11 1028 0 18.2 27.1 40.5 106.2 97.1 333.0
04/05 05:50 6.7 99 7.53 6.6 9 11 1028 0 17.6 26.8 39.6 103.6 93.8 321.3
04/05 05:40 7 99 7.67 6.9 7 7 1028.1 0 17.9 26.9 40.0 104.8 95.4 327.0
04/05 05:30 7.4 100 7.96 7.4 7 11 1028 0 18.5 27.3 41.1 107.6 99.0 339.7
04/05 05:20 7.3 100 7.9 7.3 2 6 1028 0 18.4 27.2 40.9 107.0 98.3 337.1
04/05 05:10 7.7 100 8.11 7.7 13 15 1027.9 0 18.8 27.5 41.6 108.9 100.8 345.8
04/05 05:00 7.3 99 7.83 7.2 7 9 1027.7 0 18.2 27.1 40.6 106.2 97.3 333.5
04/05 04:50 7.3 99 7.83 7.2 7 7 1027.8 0 18.2 27.1 40.6 106.2 97.3 333.6
04/05 04:40 7.5 99 7.93 7.4 6 7 1027.8 0 18.4 27.2 40.9 107.1 98.5 337.7
04/05 04:30 7.4 99 7.88 7.3 6 7 1027.7 0 18.3 27.2 40.7 106.6 97.9 335.6
04/05 04:20 7.8 100 8.16 7.8 6 7 1027.8 0 18.9 27.5 41.7 109.3 101.3 347.8
04/05 04:10 8.2 100 8.38 8.2 7 7 1027.8 0 19.4 27.8 42.5 111.3 104.0 357.0
04/05 04:00 7.7 100 8.11 7.7 6 7 1027.8 0 18.8 27.5 41.6 108.9 100.8 345.8
04/05 03:50 8.2 100 8.38 8.2 6 6 1027.9 0 19.4 27.8 42.5 111.3 104.0 357.0
04/05 03:40 8.7 100 8.65 8.7 7 7 1027.9 0 19.9 28.1 43.4 113.7 107.1 368.2
04/05 03:30 8.2 99 8.29 8.1 7 9 1027.8 0 19.2 27.6 42.1 110.3 102.7 352.5
04/05 03:20 8.4 99 8.4 8.3 7 7 1028 0 19.4 27.8 42.5 111.3 104.0 357.1
04/05 03:10 8.4 99 8.4 8.3 7 7 1028 0 19.4 27.8 42.5 111.3 104.0 357.1
04/05 03:00 8.5 99 8.46 8.4 7 7 1027.9 0 19.5 27.8 42.7 111.8 104.7 359.6
04/05 02:50 8 99 8.19 7.9 7 7 1028 0 19.0 27.5 41.8 109.4 101.5 348.5
04/05 02:40 7.8 99 8.08 7.7 7 7 1028 0 18.7 27.4 41.4 108.4 100.2 343.9
04/05 02:30 7.8 99 8.08 7.7 6 7 1027.9 0 18.7 27.4 41.4 108.4 100.2 343.8
04/05 02:20 9 99 8.73 8.9 6 6 1028.1 0 20.1 28.2 43.6 114.2 107.9 370.8
04/05 02:10 9.6 99 9.07 9.5 6 6 1028 0 20.8 28.6 44.7 117.3 111.9 384.9
04/05 02:00 9.5 99 9.01 9.4 4 6 1027.8 0 20.7 28.5 44.5 116.7 111.2 382.4
04/05 01:50 8.6 99 8.51 8.5 6 6 1027.8 0 19.6 27.9 42.8 112.2 105.3 361.6
04/05 01:40 9 99 8.73 8.9 7 9 1027.7 0 20.1 28.1 43.5 114.2 107.8 370.7
04/05 01:30 9.5 99 9.01 9.4 9 11 1027.8 0 20.7 28.5 44.5 116.7 111.2 382.4
04/05 01:20 9.9 99 9.25 9.8 9 9 1027.9 0 21.2 28.8 45.3 118.9 114.0 392.5
04/05 01:10 10.3 99 9.48 10.1 9 9 1027.9 0 21.6 29.0 46.1 121.0 116.7 402.0
04/05 01:00 10.5 99 9.6 10.3 11 11 1027.7 0 21.9 29.2 46.5 122.1 118.2 407.0
04/05 00:50 11 99 9.91 10.8 9 11 1027.8 0 22.5 29.6 47.6 124.9 121.9 420.0
04/05 00:40 11.3 99 10.1 11.1 7 9 1027.6 0 22.9 29.8 48.2 126.7 124.1 428.0
04/05 00:30 11.3 98 10 11 7 9 1027.5 0 22.7 29.6 47.8 125.5 122.7 422.9
04/05 00:20 11.4 97 9.96 10.9 7 9 1027.5 0 22.6 29.5 47.5 124.8 121.9 420.3

Last Refresh: 04-May-2026 18:33:48

Bureau of Meteorology